Observations for BENSON RAF, United Kingdom (EGUB)

EGUB 190250Z AUTO 21009KT 9999 // BKN009/// SCT017/// BKN021/// 17/16 Q1011 
EGUB 190150Z AUTO 20009KT 9999 // BKN013/// BKN021/// 17/15 Q1011   
EGUB 190050Z AUTO 19011KT 9999 // BKN022/// BKN027/// 18/14 Q1011   
EGUB 182350Z AUTO 19011KT 9999 // BKN047/// BKN160/// 17/14 Q1011   
EGUB 182250Z AUTO 19011KT 9999 // BKN050/// 17/14 Q1011 
EGUB 182150Z AUTO 20009KT 9999 // OVC050/// 18/14 Q1011 
EGUB 182050Z 20012KT 9999 FEW023 BKN050 18/14 Q1011 BLU TEMPO SCT022 WHT
EGUB 181950Z 19012KT 9999 FEW022 BKN045 18/14 Q1011 BLU TEMPO SCT020 WHT
EGUB 181850Z 19014KT 9999 FEW022 BKN044 19/14 Q1011 BLU TEMPO SCT022 WHT
EGUB 181750Z 20013KT 9999 FEW023 SCT050 19/14 Q1010 BLU NOSIG   
EGUB 181650Z 21016KT 9999 FEW023 20/14 Q1010 BLU TEMPO SCT022 WHT   
EGUB 181623Z 20016KT 9999 FEW023 20/14 Q1010 BLU TEMPO SCT020 WHT
EGUB 181550Z 20014KT 9999 SCT022 SCT035 20/15 Q1010 WHT TEMPO FEW023 SCT035 BLU 
EGUB 181523Z 21014G24KT 9999 SCT023 BKN035 20/14 Q1010 WHT TEMPO FEW023 BKN035 BLU
EGUB 181450Z 20018KT 9999 FEW025 BKN035 20/14 Q1010 BLU NOSIG   
EGUB 181350Z 21015KT 9999 FEW032 BKN035 21/14 Q1010 BLU NOSIG   
EGUB 181250Z 22014KT 9999 BKN030 20/13 Q1009 BLU NOSIG  
EGUB 181150Z 22017G28KT 9999 BKN032 20/12 Q1009 BLU NOSIG   
EGUB 181050Z 22017KT 9999 FEW030 BKN250 20/11 Q1008 BLU NOSIG   
EGUB 180950Z 23018KT 9999 SCT028 BKN250 20/12 Q1008 BLU NOSIG   
EGUB 180850Z 22017KT 9999 BKN017 18/14 Q1006 WHT BECMG BKN025 BLU   
EGUB 180750Z 21020G32KT 9999 BKN016 19/15 Q1005 WHT BECMG BKN025 BLU
EGUB 180650Z 20018KT 9999 BKN014 18/15 Q1004 GRN BECMG BKN018 WHT   
EGUB 180550Z 20017KT 9999 -DZ OVC014 18/15 Q1004 GRN BECMG BKN015 WHT   
EGUB 180450Z AUTO 20018G29KT 9999 // BKN016/// BKN025/// 18/15 Q1003
EGUB 180350Z AUTO 19020G34KT 9999 // SCT018/// BKN024/// 19/15 Q1003
EGUB 180250Z AUTO 19016KT 9999 // BKN019/// BKN026/// 19/15 Q1004